Tiempo atmosférico en la estación meteorológica de Carmona, Sevilla (50 m.)



Fecha
DESCASC
Temp. máxima en grados centígrados (hora)
DESCASC
Temp. mínima en grados centígrados (hora)
DESCASC
Temp. media en grados centígrados
DESCASC
Racha de viento máxima en m/sg (hora)
DESCASC
Velocidad máxima media en intervalos de 10 minutos(hora)
DESCASC
Precipitaciones diarias en mm
DESCASC
Precipitaciones de 00:00 a 06:00 en mm
DESCASC
Precipitaciones de 06:00 a 12:00 en mm
DESCASC
Precipitaciones de 12:00 a 18:00 en mm
DESCASC
Precipitaciones de 18:00 a 24:00 en mm
DESCASC
23-05-2018 28.9 (18:10) 13.3 (06:20) 21.1 6.94 (18:30) 4.44 (18:30) 0 0 0 0 0
22-05-2018 27.2 (17:40) 15.9 (07:50) 21.6 7.5 (01:00) 4.72 (01:00) 0 0 0 0 0
21-05-2018 25.3 (16:00) 15.3 (07:40) 20.3 13.33 (17:10) 7.78 (17:20) 0 0 0 0 0
20-05-2018 25.6 (17:20) 13.4 (00:00) 19.5 10.28 (19:50) 6.11 (19:30) 0 0 0 0 0
19-05-2018 28.7 (16:50) 15.3 (06:20) 22 12.78 (18:10) 7.22 (18:10) 0 0 0 0 0
18-05-2018 27.7 (16:30) 14.4 (00:00) 21.1 12.78 (18:10) 6.67 (18:20) 2.6 0 0 0 2.6
17-05-2018 30 (18:10) 13.1 (00:00) 21.6 12.78 (20:00) 8.89 (20:00) 0 0 0 0 0
16-05-2018 30.2 (17:40) 12.5 (00:00) 21.4 10.56 (23:59) 7.22 (23:59) 0 0 0 0 0
15-05-2018 29.3 (18:30) 12.1 (00:00) 20.7 11.39 (11:50) 8.06 (11:50) 0 0 0 0 0
14-05-2018 28.3 (18:00) 11.3 (00:00) 19.8 7.78 (17:10) 5 (19:00) 0 0 0 0 0
13-05-2018 24.6 (18:00) 9.4 (00:00) 17 8.06 (16:50) 5.56 (04:00) 0 0 0 0 0
12-05-2018 24.5 (17:50) 12.7 (00:00) 18.6 10.56 (19:40) 6.94 (20:00) 0 0 0 0 0
11-05-2018 25 (17:50) 11.1 (07:30) 18.1 8.89 (16:10) 5.56 (19:10) 0 0 0 0 0
10-05-2018 23.6 (17:10) 15.3 (00:00) 19.5 8.61 (14:40) 5.28 (19:10) 0 0 0 0 0
09-05-2018 21.3 (19:50) 16.2 (00:00) 18.8 8.61 (20:50) 5.28 (20:50) 0.2 0 0 0.2 0
08-05-2018 26.8 (15:30) 13.8 (00:00) 20.3 8.61 (00:30) 6.11 (00:30) 0.8 0 0 0 0.8
07-05-2018 28.6 (18:30) 13.3 (00:00) 21 8.61 (22:20) 5.83 (22:20) 0 0 0 0 0
06-05-2018 28.2 (18:30) 13.4 (00:00) 20.8 12.22 (19:20) 8.61 (19:20) 4.4 0 0 0 4.4
05-05-2018 28.8 (18:50) 11.1 (00:00) 19.9 5.83 (23:10) 3.33 (11:10) 0 0 0 0 0
04-05-2018 26.6 (18:20) 11.1 (00:00) 18.9 14.17 (19:00) 9.17 (19:00) 0 0 0 0 0
03-05-2018 25.5 (17:10) 8.8 (00:00) 17.2 7.22 (19:20) 4.72 (19:00) 0 0 0 0 0
02-05-2018 21.8 (18:10) 6.8 (00:00) 14.3 8.89 (20:50) 6.11 (20:50) 0 0 0 0 0
01-05-2018 17.3 (13:40) 7.7 (08:00) 12.5 9.72 (17:00) 5 (17:10) 1 0 0 0.8 0.2
30-04-2018 18.2 (19:30) 6.4 (00:00) 12.3 11.11 (17:10) 5.56 (13:40) 1 0 0 0.8 0.2
29-04-2018 18.9 (15:50) 8.6 (00:00) 13.8 14.17 (17:50) 9.17 (17:40) 0 0 0 0 0
28-04-2018 19.7 (15:20) 12.4 (00:00) 16.1 12.5 (16:00) 8.61 (20:10) 0 0 0 0 0

Gráficas

Temp. máximas Temp. mínimas Temp. medias Precipitaciones Rachas de viento máximas Velocidades máximas media en intervalos de 10 minutos

Datos horarios

Fecha y hora oficial Temperatura (ºC) Velocidad del viento (km/h) Dirección del viento Racha (km/h) Dirección de racha Precipitación (mm) Presión (hPa) Tendencia (hPa) Humedad (%)
2018-05-27 23:00:00 18.5 11 Sudoeste 23 Sudoeste 0 -- -- 69
2018-05-27 22:00:00 19.6 12 Sudoeste 27 Sudoeste 0 -- -- 65
2018-05-27 21:00:00 21.3 18 Sudoeste 34 Sur 0 -- -- 57
2018-05-27 20:00:00 22.7 19 Sudoeste 32 Sudoeste 0 -- -- 53
2018-05-27 19:00:00 24.1 22 Sudoeste 32 Sudoeste 0 -- -- 46
2018-05-27 18:00:00 24 18 Sudoeste 35 Oeste 0 -- -- 47
2018-05-27 17:00:00 25.3 19 Oeste 32 Oeste 0 -- -- 43
2018-05-27 16:00:00 24.3 10 Oeste 24 Oeste 0 -- -- 44
2018-05-27 15:00:00 23.3 13 Sudoeste 22 Sudoeste 0 -- -- 52
2018-05-27 14:00:00 23 12 Oeste 24 Noroeste 0 -- -- 55
2018-05-27 13:00:00 20.6 10 Oeste 18 Oeste 0 -- -- 62
2018-05-27 12:00:00 19.4 7 Oeste 20 Oeste 0 -- -- 73
2018-05-27 11:00:00 18.4 7 Oeste 18 Oeste 0 -- -- 78
2018-05-27 10:00:00 17.6 5 Sudoeste 10 Oeste 0 -- -- 81
2018-05-27 09:00:00 16.6 0 Calma 5 Noroeste 0 -- -- 86
2018-05-27 08:00:00 15.7 4 Noroeste 6 Noroeste 0 -- -- 88
2018-05-27 07:00:00 15.5 0 Calma 5 Oeste 0 -- -- 88
2018-05-27 06:00:00 15.5 4 Oeste 7 Norte 0 -- -- 88
2018-05-27 05:00:00 16.2 5 Noroeste 12 Sudoeste 0 -- -- 86
2018-05-27 04:00:00 15.8 6 Sudoeste 11 Sudoeste 0 -- -- 86
2018-05-27 03:00:00 16.3 8 Sudoeste 19 Sudoeste 0 -- -- 82
2018-05-27 02:00:00 17 12 Sudoeste 18 Sudoeste 0 -- -- 79
2018-05-27 01:00:00 17.4 9 Sudoeste 15 Sudoeste 0 -- -- 76
2018-05-27 00:00:00 18.1 9 Oeste 12 Oeste 0 -- -- 70
2018-05-26 23:00:00 19.3 4 Sudoeste 9 Oeste 0 -- -- 65
2018-05-26 22:00:00 20.3 5 Oeste 15 Oeste 0 -- -- 63
2018-05-26 21:00:00 22.7 11 Oeste 17 Oeste 0 -- -- 54
2018-05-26 20:00:00 24.1 11 Oeste 22 Oeste 0 -- -- 47
2018-05-26 19:00:00 24.4 10 Oeste 19 Oeste 0 -- -- 46
2018-05-26 18:00:00 23.6 9 Oeste 18 Oeste 0 -- -- 51
2018-05-26 17:00:00 23.1 12 Oeste 19 Oeste 0 -- -- 48
2018-05-26 16:00:00 22.8 6 Oeste 16 Oeste 0 -- -- 57
2018-05-26 15:00:00 22 5 Oeste 10 Oeste 0 -- -- 56
2018-05-26 14:00:00 21.1 3 Oeste 13 Oeste 0 -- -- 61
2018-05-26 13:00:00 21.1 4 Noroeste 15 Oeste 0 -- -- 62
2018-05-26 12:00:00 21.8 4 Norte 10 Sudoeste 0 -- -- 63
2018-05-26 11:00:00 19.5 3 Norte 12 Noroeste 0 -- -- 72
2018-05-26 10:00:00 18.4 3 Sur 11 Este 0 -- -- 76
2018-05-26 09:00:00 16.3 7 Nordeste 10 Este 0 -- -- 86
2018-05-26 08:00:00 15.9 4 Sudeste 10 Sudeste 0 -- -- 85
2018-05-26 07:00:00 15.9 4 Sudeste 7 Sudeste 0 -- -- 87
2018-05-26 06:00:00 16.2 2 Sudeste 5 Sudeste 0 -- -- 87
2018-05-26 05:00:00 16.1 4 Sudeste 7 Sur 0.2 -- -- 87
2018-05-26 04:00:00 16.4 4 Este 9 Este 0 -- -- 84
2018-05-26 03:00:00 16.1 3 Este 4 Sudeste 0 -- -- 83
2018-05-26 02:00:00 15.5 0 Calma 10 Oeste 0 -- -- 81
2018-05-26 01:00:00 16.2 4 Noroeste 6 Noroeste 0 -- -- 80
2018-05-26 00:00:00 17.1 6 Oeste 17 Oeste 0 -- -- 75
2018-05-25 23:00:00 18.1 10 Oeste 18 Oeste 0 -- -- 69
2018-05-25 22:00:00 19.2 11 Oeste 27 Sudoeste 0 -- -- 60
2018-05-25 21:00:00 20.8 19 Sudoeste 30 Sudoeste 0 -- -- 52
2018-05-25 20:00:00 21.8 21 Sudoeste 35 Sudoeste 0 -- -- 46
2018-05-25 19:00:00 21.8 21 Sudoeste 36 Sudoeste 0 -- -- 49
2018-05-25 18:00:00 22.4 19 Sudoeste 33 Oeste 0 -- -- 47
2018-05-25 17:00:00 23.3 14 Sudoeste 28 Sudoeste 0 -- -- 44
2018-05-25 16:00:00 21.8 20 Oeste 29 Oeste 0 -- -- 49
2018-05-25 15:00:00 21.3 12 Sudoeste 21 Sudoeste 0 -- -- 53
2018-05-25 14:00:00 20.8 4 Noroeste 17 Oeste 0 -- -- 58
2018-05-25 13:00:00 19.8 7 Sudoeste 14 Sudoeste 0 -- -- 64
2018-05-25 12:00:00 18.5 7 Norte 16 Norte 0 -- -- 75
2018-05-25 11:00:00 18.1 9 Noroeste 15 Oeste 0 -- -- 76
2018-05-25 10:00:00 17.7 7 Oeste 22 Sudeste 0 -- -- 76
2018-05-25 09:00:00 15.4 5 Este 12 Sudeste 0 -- -- 88
2018-05-25 08:00:00 15.3 10 Sudeste 14 Sudeste 0 -- -- 85
2018-05-25 07:00:00 15.5 8 Sudeste 11 Sudeste 0 -- -- 86
2018-05-25 06:00:00 15.5 8 Sudeste 11 Sudeste 0 -- -- 85
2018-05-25 05:00:00 15.6 0 Calma 4 Oeste 0 -- -- 84
2018-05-25 04:00:00 15.4 3 Sudoeste 7 Sudoeste 0 -- -- 85
2018-05-25 03:00:00 15 4 Sur 11 Sudoeste 0 -- -- 87
2018-05-25 02:00:00 15.3 4 Sudoeste 11 Sur 0 -- -- 86
2018-05-25 01:00:00 15.5 5 Sur 12 Sudoeste 0 -- -- 84
2018-05-25 00:00:00 15.9 5 Sudoeste 12 Sur 0 -- -- 84
2018-05-24 23:00:00 16.4 2 Sudoeste 9 Sudoeste 0 -- -- 81
2018-05-24 22:00:00 16.5 5 Sudoeste 10 Sudoeste 0 -- -- 80
2018-05-24 21:00:00 16.7 6 Sudoeste 25 Sudoeste 0 -- -- 79
2018-05-24 20:00:00 17.2 14 Oeste 30 Sudoeste 0 -- -- 74
2018-05-24 19:00:00 18.2 22 Sudoeste 37 Oeste 0 -- -- 69
2018-05-24 18:00:00 20.5 27 Oeste 37 Oeste 0 -- -- 65
2018-05-24 17:00:00 21.5 25 Oeste 36 Oeste 0 -- -- 58
2018-05-24 16:00:00 22.6 20 Oeste 34 Sudoeste 0 -- -- 56
2018-05-24 15:00:00 22.9 18 Oeste 32 Oeste 0 -- -- 53
2018-05-24 14:00:00 22.3 19 Sudoeste 36 Oeste 0 -- -- 55
2018-05-24 13:00:00 22 19 Oeste 40 Sudoeste 0 -- -- 59
2018-05-24 12:00:00 21.6 18 Oeste 29 Sudoeste 0 -- -- 59
2018-05-24 11:00:00 21 18 Oeste 26 Oeste 0 -- -- 62
2018-05-24 10:00:00 20.2 15 Oeste 23 Oeste 0 -- -- 69
2018-05-24 09:00:00 17.9 7 Sudeste 10 Sudeste 0 -- -- 83
2018-05-24 08:00:00 17 0 Calma 11 Norte 0 -- -- 86
2018-05-24 07:00:00 17.2 6 Norte 12 Norte 0 -- -- 84
2018-05-24 06:00:00 17.4 6 Sur 10 Noroeste 0 -- -- 83
2018-05-24 05:00:00 17.2 6 Oeste 9 Oeste 0 -- -- 80
2018-05-24 04:00:00 17.5 0 Calma 8 Sudoeste 0 -- -- 77
2018-05-24 03:00:00 18.3 4 Sur 15 Sudoeste 0 -- -- 72
2018-05-24 02:00:00 19 10 Sudoeste 23 Sudoeste 0 -- -- 68
2018-05-24 01:00:00 20.2 13 Sudoeste 29 Sudoeste 0 -- -- 64
2018-05-24 00:00:00 21.6 11 Sudoeste 18 Sudoeste 0 -- -- 58
2018-05-23 23:00:00 22.2 8 Sudoeste 13 Oeste 0 -- -- 55
2018-05-23 22:00:00 23.7 6 Sudoeste 14 Sudoeste 0 -- -- 51
2018-05-23 21:00:00 24.7 9 Oeste 16 Oeste 0 -- -- 47
2018-05-23 20:00:00 26.5 11 Oeste 19 Oeste 0 -- -- 44
2018-05-23 19:00:00 28.7 8 Oeste 25 Oeste 0 -- -- 36
2018-05-23 18:00:00 28.8 4 Sudeste 14 Este 0 -- -- 34
2018-05-23 17:00:00 28.6 7 Nordeste 20 Este 0 -- -- 36
2018-05-23 16:00:00 27.3 7 Norte 20 Oeste 0 -- -- 35
2018-05-23 15:00:00 25.8 7 Noroeste 15 Noroeste 0 -- -- 45
2018-05-23 14:00:00 24.8 3 Noroeste 11 Noroeste 0 -- -- 49
2018-05-23 13:00:00 24.6 4 Nordeste 12 Este 0 -- -- 47
2018-05-23 12:00:00 23 3 Este 14 Este 0 -- -- 51
2018-05-23 11:00:00 21.2 8 Nordeste 16 Este 0 -- -- 57
2018-05-23 10:00:00 19.2 7 Este 14 Este 0 -- -- 69
2018-05-23 09:00:00 17 8 Nordeste 13 Nordeste 0 -- -- 78
2018-05-23 08:00:00 13.8 3 Este 9 Este 0 -- -- 88
2018-05-23 07:00:00 13.3 7 Nordeste 9 Nordeste 0 -- -- 87
2018-05-23 06:00:00 13.5 6 Nordeste 9 Nordeste 0 -- -- 85
2018-05-23 05:00:00 14.6 4 Nordeste 8 Nordeste 0 -- -- 80
2018-05-23 04:00:00 15.6 0 Calma 6 Sudoeste 0 -- -- 78
2018-05-23 03:00:00 16.1 3 Sudeste 7 Sur 0 -- -- 76
2018-05-23 02:00:00 17.1 3 Este 3 Este 0 -- -- 76
2018-05-23 01:00:00 18 2 Sudeste 5 Sudeste 0 -- -- 74
2018-05-23 00:00:00 19.2 2 Sur 8 Oeste 0 -- -- 66
2018-05-22 23:00:00 20.1 5 Noroeste 10 Oeste 0 -- -- 62
2018-05-22 22:00:00 21.5 6 Oeste 10 Oeste 0 -- -- 57
2018-05-22 21:00:00 23.8 6 Oeste 15 Sudoeste 0 -- -- 46
2018-05-22 20:00:00 26 8 Oeste 16 Oeste 0 -- -- 39
2018-05-22 19:00:00 26.2 9 Oeste 18 Sudoeste 0 -- -- 40
2018-05-22 18:00:00 26.6 8 Oeste 22 Oeste 0 -- -- 31
2018-05-22 17:00:00 26.3 8 Oeste 20 Nordeste 0 -- -- 36
2018-05-22 16:00:00 25.3 5 Noroeste 16 Noroeste 0 -- -- 43
2018-05-22 15:00:00 23.6 5 Sudoeste 13 Oeste 0 -- -- 49
2018-05-22 14:00:00 21.3 5 Sur 14 Sudeste 0 -- -- 56
2018-05-22 13:00:00 20.3 7 Este 17 Este 0 -- -- 59
2018-05-22 12:00:00 19.2 5 Este 14 Sudeste 0 -- -- 64
2018-05-22 11:00:00 17.3 6 Sudeste 12 Sudeste 0 -- -- 69
2018-05-22 10:00:00 16.8 6 Sur 14 Sudeste 0 -- -- 70
2018-05-22 09:00:00 16.3 3 Sur 8 Sur 0 -- -- 73
2018-05-22 08:00:00 15.9 5 Sur 8 Sudeste 0 -- -- 80
2018-05-22 07:00:00 16.3 4 Sur 8 Sudeste 0 -- -- 77
2018-05-22 06:00:00 16.3 4 Sur 10 Sur 0 -- -- 79
2018-05-22 05:00:00 16.4 3 Oeste 7 Oeste 0 -- -- 80
2018-05-22 04:00:00 16.6 7 Oeste 14 Oeste 0 -- -- 79
2018-05-22 03:00:00 16.6 6 Oeste 15 Oeste 0 -- -- 79
2018-05-22 02:00:00 16.8 10 Oeste 23 Sudoeste 0 -- -- 77
2018-05-22 01:00:00 16.7 17 Sudoeste 27 Sudoeste 0 -- -- 80
2018-05-22 00:00:00 16.8 13 Sudoeste 23 Sudoeste 0 -- -- 82
2018-05-21 23:00:00 17.9 14 Sudoeste 24 Sudoeste 0 -- -- 78
2018-05-21 22:00:00 19.5 12 Sudoeste 22 Sudoeste 0 -- -- 73
2018-05-21 21:00:00 21.1 8 Oeste 17 Sudoeste 0 -- -- 60
2018-05-21 20:00:00 21.1 8 Sudoeste 25 Oeste 0 -- -- 64
2018-05-21 19:00:00 21.3 14 Oeste 27 Oeste 0 -- -- 61
2018-05-21 18:00:00 21.1 15 Noroeste 48 Oeste 0 -- -- 59
2018-05-21 17:00:00 24.3 12 Oeste 26 Oeste 0 -- -- 47
2018-05-21 16:00:00 25.3 11 Sudoeste 27 Sudoeste 0 -- -- 43
2018-05-21 15:00:00 24.2 10 Sudoeste 21 Sur 0 -- -- 51
2018-05-21 14:00:00 22 5 Sudeste 13 Sudeste 0 -- -- 57
2018-05-21 13:00:00 22.2 4 Noroeste 19 Nordeste 0 -- -- 60
2018-05-21 12:00:00 21.2 9 Nordeste 15 Este 0 -- -- 67
2018-05-21 11:00:00 18.7 10 Este 18 Este 0 -- -- 74
2018-05-21 10:00:00 16.6 12 Este 18 Este 0 -- -- 81
2018-05-21 09:00:00 16 7 Este 12 Este 0 -- -- 86
2018-05-21 08:00:00 15.4 8 Este 13 Este 0 -- -- 88
2018-05-21 07:00:00 15.4 9 Este 15 Este 0 -- -- 88
2018-05-21 06:00:00 15.5 9 Este 14 Nordeste 0 -- -- 88
2018-05-21 05:00:00 15.6 8 Este 13 Este 0 -- -- 88
2018-05-21 04:00:00 15.8 6 Nordeste 16 Este 0 -- -- 86
2018-05-21 03:00:00 16 6 Nordeste 10 Nordeste 0 -- -- 84
2018-05-21 02:00:00 16.2 0 Calma 5 Nordeste 0 -- -- 82
2018-05-21 01:00:00 16 0 Calma 12 Norte 0 -- -- 80
2018-05-21 00:00:00 16.7 4 Noroeste 10 Norte 0 -- -- 76
2018-05-20 23:00:00 19.1 0 Calma 9 Sur 0 -- -- 67
2018-05-20 22:00:00 19 6 Norte 16 Sur 0 -- -- 67
2018-05-20 21:00:00 20 11 Sudoeste 26 Sur 0 -- -- 61
2018-05-20 20:00:00 20.7 22 Sur 37 Sudoeste 0 -- -- 57
2018-05-20 19:00:00 23.5 18 Oeste 27 Sudoeste 0 -- -- 45
2018-05-20 18:00:00 23.5 18 Oeste 29 Noroeste 0 -- -- 43
2018-05-20 17:00:00 25.4 9 Noroeste 18 Oeste 0 -- -- 41
2018-05-20 16:00:00 22.7 7 Norte 21 Noroeste 0 -- -- 55
2018-05-20 15:00:00 23 8 Norte 18 Nordeste 0 -- -- 57
2018-05-20 14:00:00 21.8 11 Nordeste 19 Nordeste 0 -- -- 61
2018-05-20 13:00:00 20.3 10 Nordeste 16 Nordeste 0 -- -- 69
2018-05-20 12:00:00 19.6 9 Este 15 Este 0 -- -- 73
2018-05-20 11:00:00 18.3 8 Este 12 Este 0 -- -- 81
2018-05-20 10:00:00 17.1 3 Este 7 Este 0 -- -- 78
2018-05-20 09:00:00 14.7 4 Este 6 Nordeste 0 -- -- 90
2018-05-20 08:00:00 13.6 4 Nordeste 6 Nordeste 0 -- -- 90
2018-05-20 07:00:00 13.4 3 Este 6 Nordeste 0 -- -- 89
2018-05-20 06:00:00 13.7 3 Norte 10 Este 0 -- -- 88
2018-05-20 05:00:00 14.3 0 Calma 4 Norte 0 -- -- 87
2018-05-20 04:00:00 14.8 4 Norte 5 Norte 0 -- -- 86
2018-05-20 03:00:00 15.8 3 Sur 13 Sudoeste 0 -- -- 85
2018-05-20 02:00:00 16.1 0 Calma 8 Sur 0 -- -- 83
2018-05-20 01:00:00 16.1 4 Sur 6 Sudeste 0 -- -- 82
2018-05-20 00:00:00 16.6 0 Calma 4 Oeste 0 -- -- 80
2018-05-19 23:00:00 17.2 5 Oeste 13 Noroeste 0 -- -- 76
2018-05-19 22:00:00 18.1 7 Noroeste 17 Oeste 0 -- -- 72
2018-05-19 21:00:00 19.3 10 Oeste 23 Sur 0 -- -- 66
2018-05-19 20:00:00 19.8 15 Sur 27 Sur 0 -- -- 64
2018-05-19 19:00:00 18.7 21 Sur 46 Sudeste 0 -- -- 73
2018-05-19 18:00:00 25.1 21 Nordeste 32 Nordeste 0 -- -- 44
2018-05-19 17:00:00 28.3 14 Noroeste 22 Noroeste 0 -- -- 35
2018-05-19 16:00:00 28.3 9 Nordeste 15 Norte 0 -- -- 31
2018-05-19 15:00:00 27.7 7 Norte 18 Nordeste 0 -- -- 33
2018-05-19 14:00:00 26.2 6 Noroeste 18 Nordeste 0 -- -- 43
2018-05-19 13:00:00 24.8 6 Nordeste 19 Este 0 -- -- 46
2018-05-19 12:00:00 23.4 9 Este 17 Este 0 -- -- 51
2018-05-19 11:00:00 21 9 Este 16 Nordeste 0 -- -- 62
2018-05-19 10:00:00 18.7 6 Nordeste 14 Nordeste 0 -- -- 70
2018-05-19 09:00:00 17.3 8 Nordeste 19 Este 0 -- -- 74
2018-05-19 08:00:00 15.3 11 Este 22 Este 0 -- -- 79
2018-05-19 07:00:00 15.3 12 Este 19 Este 0 -- -- 84
2018-05-19 06:00:00 15.6 10 Nordeste 17 Nordeste 0 -- -- 87
2018-05-19 05:00:00 15.9 5 Este 9 Nordeste 0 -- -- 90
2018-05-19 04:00:00 15.8 4 Nordeste 6 Nordeste 0 -- -- 89
2018-05-19 03:00:00 15.8 3 Nordeste 8 Nordeste 0 -- -- 88
2018-05-19 02:00:00 16 4 Nordeste 12 Norte 0 -- -- 88
2018-05-19 01:00:00 16.2 6 Noroeste 8 Noroeste 0 -- -- 87
2018-05-19 00:00:00 16.3 3 Este 17 Nordeste 0 -- -- 85
2018-05-18 23:00:00 16.1 5 Nordeste 18 Norte 0.2 -- -- 86
2018-05-18 22:00:00 16.6 7 Norte 21 Norte 1.6 -- -- 84
2018-05-18 21:00:00 17 12 Oeste 31 Noroeste 0.8 -- -- 84
2018-05-18 20:00:00 20.3 14 Sudoeste 31 Este 0 -- -- 65
2018-05-18 19:00:00 23.8 21 Este 46 Sudeste 0 -- -- 48
2018-05-18 18:00:00 27.3 6 Sudeste 13 Sudeste 0 -- -- 32
2018-05-18 17:00:00 27.3 10 Noroeste 19 Noroeste 0 -- -- 36
2018-05-18 16:00:00 26.8 6 Sudeste 19 Este 0 -- -- 36
2018-05-18 15:00:00 26.1 9 Este 19 Este 0 -- -- 41
2018-05-18 14:00:00 24.1 8 Norte 15 Norte 0 -- -- 48
2018-05-18 13:00:00 21.3 9 Norte 19 Norte 0 -- -- 60
2018-05-18 12:00:00 20.6 4 Norte 10 Norte 0 -- -- 67
2018-05-18 11:00:00 18.8 4 Este 13 Nordeste 0 -- -- 73
2018-05-18 10:00:00 17.6 8 Este 12 Este 0 -- -- 78
2018-05-18 09:00:00 16.5 8 Este 11 Este 0 -- -- 83
2018-05-18 08:00:00 14.8 5 Nordeste 9 Este 0 -- -- 88
2018-05-18 07:00:00 14.7 2 Sur 4 Sur 0 -- -- 84
2018-05-18 06:00:00 15.4 2 Sur 5 Sur 0 -- -- 83
2018-05-18 05:00:00 15.7 2 Sur 5 Sudoeste 0 -- -- 83
2018-05-18 04:00:00 16.1 0 Calma 10 Oeste 0 -- -- 81
2018-05-18 03:00:00 16.9 6 Sudoeste 11 Sudoeste 0 -- -- 79
2018-05-18 02:00:00 17.6 8 Sudoeste 15 Sudoeste 0 -- -- 76
2018-05-18 01:00:00 18.2 11 Sudoeste 17 Oeste 0 -- -- 73
2018-05-18 00:00:00 18.9 12 Oeste 18 Oeste 0 -- -- 69
2018-05-17 23:00:00 20 14 Oeste 38 Oeste 0 -- -- 62
2018-05-17 22:00:00 21 22 Oeste 39 Oeste 0 -- -- 58
2018-05-17 21:00:00 23.3 28 Oeste 42 Oeste 0 -- -- 47
2018-05-17 20:00:00 25.7 32 Oeste 46 Oeste 0 -- -- 41
2018-05-17 19:00:00 29.5 6 Sudeste 10 Sudeste 0 -- -- 25
2018-05-17 18:00:00 29.5 6 Noroeste 16 Noroeste 0 -- -- 25
2018-05-17 17:00:00 29 5 Sur 13 Sur 0 -- -- 24
2018-05-17 16:00:00 28.5 5 Sudeste 17 Noroeste 0 -- -- 26
2018-05-17 15:00:00 27.3 6 Este 15 Este 0 -- -- 28
2018-05-17 14:00:00 26.3 5 Este 18 Este 0 -- -- 32
2018-05-17 13:00:00 25.1 8 Este 27 Sudeste 0 -- -- 32
2018-05-17 12:00:00 24 13 Sudeste 21 Sudeste 0 -- -- 38
2018-05-17 11:00:00 21.6 13 Este 23 Este 0 -- -- 47
2018-05-17 10:00:00 18.9 15 Este 21 Este 0 -- -- 53
2018-05-17 09:00:00 16.9 7 Nordeste 19 Este 0 -- -- 60
2018-05-17 08:00:00 13.8 4 Nordeste 9 Nordeste 0 -- -- 76
2018-05-17 07:00:00 13.4 8 Nordeste 12 Este 0 -- -- 76
2018-05-17 06:00:00 14 7 Este 9 Nordeste 0 -- -- 75
2018-05-17 05:00:00 15.6 3 Sur 13 Sudoeste 0 -- -- 69
2018-05-17 04:00:00 16.8 10 Oeste 18 Sudoeste 0 -- -- 62
2018-05-17 03:00:00 18 14 Sudoeste 31 Oeste 0 -- -- 57
2018-05-17 02:00:00 19.1 26 Oeste 40 Sudoeste 0 -- -- 51
2018-05-17 01:00:00 19.3 21 Sudoeste 37 Oeste 0 -- -- 51
2018-05-17 00:00:00 20.3 26 Oeste 38 Sudoeste 0 -- -- 47
2018-05-16 23:00:00 22.1 22 Sudoeste 33 Sudoeste 0 -- -- 42
2018-05-16 22:00:00 25.2 5 Noroeste 8 Noroeste 0 -- -- 45
2018-05-16 21:00:00 29.1 3 Noroeste 9 Sudeste 0 -- -- 30
2018-05-16 20:00:00 29.5 7 Nordeste 21 Este 0 -- -- 25
2018-05-16 19:00:00 29.7 13 Este 23 Nordeste 0 -- -- 24
2018-05-16 18:00:00 30.1 10 Nordeste 25 Nordeste 0 -- -- 26
2018-05-16 17:00:00 29.9 13 Nordeste 28 Este 0 -- -- 26
2018-05-16 16:00:00 29 16 Este 28 Este 0 -- -- 28
2018-05-16 15:00:00 28.4 17 Este 30 Este 0 -- -- 28
2018-05-16 14:00:00 27.4 17 Sudeste 27 Sudeste 0 -- -- 30
2018-05-16 13:00:00 25.6 18 Este 28 Este 0 -- -- 33
2018-05-16 12:00:00 24 15 Este 32 Este 0 -- -- 37
2018-05-16 11:00:00 22.2 18 Este 27 Este 0 -- -- 41
2018-05-16 10:00:00 19.1 17 Este 26 Este 0 -- -- 49
2018-05-16 09:00:00 16.4 13 Este 21 Este 0 -- -- 55
2018-05-16 08:00:00 13.9 12 Este 20 Este 0 -- -- 64
2018-05-16 07:00:00 12.7 8 Este 16 Este 0 -- -- 69
2018-05-16 06:00:00 13.2 12 Este 18 Este 0 -- -- 68
2018-05-16 05:00:00 13.7 10 Nordeste 15 Este 0 -- -- 66
2018-05-16 04:00:00 14.4 6 Este 11 Este 0 -- -- 62
2018-05-16 03:00:00 14.9 6 Este 8 Este 0 -- -- 65
2018-05-16 02:00:00 16.1 6 Sudeste 8 Sudeste 0 -- -- 58
2018-05-16 01:00:00 18.8 3 Este 13 Nordeste 0 -- -- 43
2018-05-16 00:00:00 19.7 8 Nordeste 10 Nordeste 0 -- -- 39
2018-05-15 23:00:00 21 5 Noroeste 8 Norte 0 -- -- 41
2018-05-15 22:00:00 23.7 4 Nordeste 12 Nordeste 0 -- -- 39
2018-05-15 21:00:00 27.5 6 Nordeste 14 Norte 0 -- -- 26
2018-05-15 20:00:00 28.8 5 Este 19 Este 0 -- -- 24
2018-05-15 19:00:00 28.9 9 Este 22 Sudeste 0 -- -- 24
2018-05-15 18:00:00 28.9 8 Este 26 Este 0 -- -- 22
2018-05-15 17:00:00 28.5 6 Sudeste 24 Este 0 -- -- 22
2018-05-15 16:00:00 28.6 13 Este 28 Nordeste 0 -- -- 23
2018-05-15 15:00:00 28 8 Nordeste 26 Este 0 -- -- 25
2018-05-15 14:00:00 26.8 16 Nordeste 33 Este 0 -- -- 25
2018-05-15 13:00:00 25.6 19 Este 39 Este 0 -- -- 27
2018-05-15 12:00:00 24.1 24 Este 41 Este 0 -- -- 31
2018-05-15 11:00:00 22.7 22 Este 32 Este 0 -- -- 35
2018-05-15 10:00:00 20.1 15 Este 25 Este 0 -- -- 45
2018-05-15 09:00:00 16.4 8 Este 14 Este 0 -- -- 58
2018-05-15 08:00:00 13.2 6 Nordeste 11 Este 0 -- -- 72
2018-05-15 07:00:00 12.3 6 Nordeste 9 Nordeste 0 -- -- 75
2018-05-15 06:00:00 13.2 5 Este 13 Este 0 -- -- 70
2018-05-15 05:00:00 14.2 9 Este 12 Este 0 -- -- 66
2018-05-15 04:00:00 14.6 5 Este 12 Nordeste 0 -- -- 66
2018-05-15 03:00:00 15.3 6 Nordeste 8 Nordeste 0 -- -- 66
2018-05-15 02:00:00 16.2 6 Nordeste 9 Nordeste 0 -- -- 64
2018-05-15 01:00:00 17.1 7 Nordeste 10 Nordeste 0 -- -- 59
2018-05-15 00:00:00 18.3 6 Nordeste 13 Norte 0 -- -- 55
2018-05-14 23:00:00 19.9 5 Nordeste 9 Norte 0 -- -- 50
2018-05-14 22:00:00 21.5 7 Norte 17 Norte 0 -- -- 46
2018-05-14 21:00:00 24.8 13 Norte 26 Norte 0 -- -- 35
2018-05-14 20:00:00 26.5 15 Norte 28 Norte 0 -- -- 31
2018-05-14 19:00:00 27.7 18 Norte 28 Norte 0 -- -- 31
2018-05-14 18:00:00 28.3 16 Norte 28 Norte 0 -- -- 29
2018-05-14 17:00:00 27.3 9 Noroeste 25 Norte 0 -- -- 31
2018-05-14 16:00:00 26.7 5 Norte 17 Noroeste 0 -- -- 29
2018-05-14 15:00:00 25 6 Oeste 16 Este 0 -- -- 29
2018-05-14 14:00:00 23.9 7 Este 19 Este 0 -- -- 28
2018-05-14 13:00:00 23.3 9 Este 22 Este 0 -- -- 32
2018-05-14 12:00:00 21.4 16 Este 26 Este 0 -- -- 35
2018-05-14 11:00:00 20.1 10 Este 18 Nordeste 0 -- -- 42
2018-05-14 10:00:00 17.7 6 Norte 10 Norte 0 -- -- 47
2018-05-14 09:00:00 14.7 5 Nordeste 10 Nordeste 0 -- -- 58
2018-05-14 08:00:00 11.7 7 Nordeste 9 Nordeste 0 -- -- 69
2018-05-14 07:00:00 11.5 7 Norte 9 Norte 0 -- -- 66
2018-05-14 06:00:00 12 7 Norte 9 Norte 0 -- -- 64
2018-05-14 05:00:00 12.5 5 Noroeste 8 Norte 0 -- -- 62
2018-05-14 04:00:00 12.2 2 Sudoeste 7 Sudeste 0 -- -- 66
2018-05-14 03:00:00 12.2 6 Sudeste 7 Sudeste 0 -- -- 64
2018-05-14 02:00:00 13.2 4 Noroeste 6 Noroeste 0 -- -- 57
2018-05-14 01:00:00 14.2 4 Norte 7 Norte 0 -- -- 52
2018-05-11 20:00:00 -- -- -- -- -- -- -- -- --
2018-05-11 19:00:00 24.4 18 Oeste 30 Sudoeste 0 -- -- 45
2018-05-11 18:00:00 25 14 Oeste 29 Oeste 0 -- -- 40
2018-05-11 17:00:00 24.3 17 Oeste 32 Oeste 0 -- -- 44
2018-05-11 16:00:00 23.1 14 Sudoeste 28 Sudoeste 0 -- -- 52
2018-05-11 15:00:00 22.5 12 Sudoeste 29 Oeste 0 -- -- 54
2018-05-11 14:00:00 21.8 13 Sudoeste 26 Sudoeste 0 -- -- 56
2018-05-11 13:00:00 20 9 Sudoeste 21 Oeste 0 -- -- 59
2018-05-11 12:00:00 18.8 8 Oeste 14 Noroeste 0 -- -- 67
2018-05-11 11:00:00 17.2 5 Noroeste 10 Oeste 0 -- -- 72
2018-05-11 10:00:00 16 2 Sur 6 Sudoeste 0 -- -- 78
2018-05-11 09:00:00 13.6 4 Norte 6 Este 0 -- -- 88
2018-05-11 08:00:00 11.4 3 Sudeste 6 Nordeste 0 -- -- 90
2018-05-11 07:00:00 11.4 6 Nordeste 7 Nordeste 0 -- -- 88
2018-05-11 06:00:00 11.9 4 Este 5 Este 0 -- -- 87
2018-05-11 05:00:00 12.6 0 Calma 4 Sur 0 -- -- 85
2018-05-11 04:00:00 13.5 3 Sur 6 Sudoeste 0 -- -- 83
2018-05-11 03:00:00 13.9 4 Sudoeste 8 Sudoeste 0 -- -- 82
2018-05-11 02:00:00 14.4 6 Sudoeste 9 Sudoeste 0 -- -- 79
2018-05-11 01:00:00 15.1 6 Sudoeste 9 Sudoeste 0 -- -- 76
2018-05-11 00:00:00 15.3 6 Oeste 16 Oeste 0 -- -- 76
2018-05-10 23:00:00 16.6 9 Oeste 20 Sudoeste 0 -- -- 69
2018-05-10 22:00:00 17.8 11 Sudoeste 24 Sudoeste 0 -- -- 64
2018-05-10 21:00:00 19.8 15 Sudoeste 26 Sudoeste 0 -- -- 55
2018-05-10 20:00:00 21.7 14 Sudoeste 30 Sudoeste 0 -- -- 48
2018-05-10 19:00:00 22.7 16 Sudoeste 28 Sudoeste 0 -- -- 44
2018-05-10 18:00:00 23.4 9 Sudoeste 27 Sudoeste 0 -- -- 39
2018-05-10 17:00:00 23.2 14 Sudoeste 29 Oeste 0 -- -- 41
2018-05-10 16:00:00 22.8 15 Sudoeste 30 Oeste 0 -- -- 42
2018-05-10 15:00:00 22.1 12 Sudoeste 31 Oeste 0 -- -- 46
2018-05-10 14:00:00 21.4 13 Sudoeste 28 Sudoeste 0 -- -- 52
2018-05-10 13:00:00 20.6 11 Oeste 22 Oeste 0 -- -- 55
2018-05-10 12:00:00 20 11 Sudoeste 22 Sudoeste 0 -- -- 57
2018-05-10 11:00:00 19 11 Oeste 21 Sudoeste 0 -- -- 61
2018-05-10 10:00:00 17.5 3 Sudoeste 6 Sudoeste 0 -- -- 80
2018-05-10 09:00:00 15.8 0 Calma 8 Oeste 0 -- -- 85
2018-05-10 08:00:00 15.5 4 Oeste 13 Oeste 0 -- -- 85
2018-05-10 07:00:00 15.9 10 Oeste 14 Oeste 0 -- -- 81
2018-05-10 06:00:00 16.2 8 Sudoeste 17 Sudoeste 0 -- -- 84
2018-05-10 05:00:00 16.2 10 Sudoeste 18 Sudoeste 0 -- -- 83
2018-05-10 04:00:00 16.4 12 Sudoeste 23 Sudoeste 0 -- -- 82
2018-05-10 03:00:00 16.5 10 Sudoeste 22 Sudoeste 0 -- -- 82
2018-05-10 02:00:00 16.4 13 Sudoeste 22 Sur 0 -- -- 83
2018-05-10 01:00:00 16.1 11 Sudoeste 19 Sudoeste 0 -- -- 85
2018-05-10 00:00:00 16.6 12 Sudoeste 24 Sudoeste 0 -- -- 81
2018-05-09 23:00:00 17.4 16 Sudoeste 26 Sudoeste 0 -- -- 77
2018-05-09 22:00:00 18.3 15 Sudoeste 28 Sudoeste 0 -- -- 74
2018-05-09 21:00:00 19.6 17 Sudoeste 31 Sudoeste 0 -- -- 69
2018-05-09 20:00:00 21.3 10 Sudoeste 21 Sudoeste 0 -- -- 68
2018-05-09 19:00:00 20.5 12 Sudoeste 21 Sudoeste 0 -- -- 75
2018-05-09 18:00:00 19.4 11 Sudoeste 22 Sudoeste 0 -- -- 82
2018-05-09 17:00:00 18.5 13 Sudoeste 24 Sudoeste 0 -- -- 86
2018-05-09 16:00:00 17.9 10 Sudoeste 17 Sudoeste 0.2 -- -- 89
2018-05-09 15:00:00 18.5 10 Oeste 21 Sudoeste 0 -- -- 83
2018-05-09 14:00:00 19.2 12 Sudoeste 19 Oeste 0 -- -- 76
2018-05-09 13:00:00 19.1 9 Sudoeste 19 Sudoeste 0 -- -- 75
2018-05-09 12:00:00 18.4 8 Sudoeste 19 Sudoeste 0 -- -- 80
2018-05-09 11:00:00 17.5 12 Sur 19 Sudoeste 0 -- -- 84
2018-05-09 10:00:00 16.7 12 Sur 19 Sudoeste 0 -- -- 87
2018-05-09 09:00:00 16.3 8 Sudoeste 17 Sudoeste 0 -- -- 89
2018-05-09 08:00:00 16.2 8 Sudoeste 17 Sudoeste 0 -- -- 89
2018-05-09 07:00:00 16.4 10 Sudoeste 22 Sudoeste 0 -- -- 86
2018-05-09 06:00:00 16.4 12 Sudoeste 20 Sur 0 -- -- 87
2018-05-09 05:00:00 16.5 13 Sudoeste 20 Oeste 0 -- -- 87
2018-05-09 04:00:00 16.7 14 Sudoeste 21 Sudoeste 0 -- -- 88
2018-05-09 03:00:00 16.8 11 Sudoeste 21 Sudoeste 0 -- -- 88
2018-05-09 02:00:00 17.1 0 Calma 7 Sudoeste 0 -- -- 88
2018-05-09 01:00:00 17.2 5 Noroeste 10 Sudoeste 0 -- -- 86
2018-05-09 00:00:00 18 6 Sudoeste 24 Sudoeste 0 -- -- 83
2018-05-08 23:00:00 18.5 9 Sudoeste 23 Sur 0.2 -- -- 83
2018-05-08 22:00:00 18.4 9 Oeste 16 Oeste 0 -- -- 83
2018-05-08 21:00:00 17.8 7 Norte 17 Noroeste 0.6 -- -- 84
2018-05-08 20:00:00 19.3 9 Norte 22 Noroeste 0 -- -- 76
2018-05-08 19:00:00 21.4 12 Norte 26 Noroeste 0 -- -- 69
2018-05-08 18:00:00 24.1 12 Noroeste 25 Noroeste 0 -- -- 61
2018-05-08 17:00:00 25.1 11 Oeste 18 Noroeste 0 -- -- 57
2018-05-08 16:00:00 25.8 10 Oeste 24 Sudoeste 0 -- -- 45
2018-05-08 15:00:00 26 12 Oeste 23 Oeste 0 -- -- 43
2018-05-08 14:00:00 24.2 7 Oeste 17 Sudoeste 0 -- -- 53
2018-05-08 13:00:00 23 8 Noroeste 17 Sudoeste 0 -- -- 63
2018-05-08 12:00:00 21.1 9 Oeste 15 Sudoeste 0 -- -- 65
2018-05-08 11:00:00 18.9 4 Oeste 9 Oeste 0 -- -- 72
2018-05-08 10:00:00 17.1 3 Sur 8 Norte 0 -- -- 82
2018-05-08 09:00:00 15.2 4 Norte 8 Norte 0 -- -- 89
2018-05-08 08:00:00 14.1 0 Calma 6 Nordeste 0 -- -- 89
2018-05-08 07:00:00 14.2 0 Calma 5 Nordeste 0 -- -- 86
2018-05-08 06:00:00 14.5 2 Este 6 Oeste 0 -- -- 85
2018-05-08 05:00:00 15.1 5 Oeste 11 Oeste 0 -- -- 82
2018-05-08 04:00:00 15.9 5 Sudoeste 14 Sudoeste 0 -- -- 76
2018-05-08 03:00:00 16.5 9 Sudoeste 19 Sudoeste 0 -- -- 74
2018-05-08 02:00:00 17.1 14 Sudoeste 26 Oeste 0 -- -- 72
2018-05-08 01:00:00 18.1 17 Oeste 31 Oeste 0 -- -- 68
2018-05-08 00:00:00 18.4 16 Oeste 28 Sudoeste 0 -- -- 67
2018-05-07 23:00:00 19.2 16 Sudoeste 31 Oeste 0 -- -- 65
2018-05-07 22:00:00 20.9 17 Oeste 25 Oeste 0 -- -- 60
2018-05-07 21:00:00 22.2 8 Noroeste 23 Oeste 0 -- -- 58
2018-05-07 20:00:00 24.4 17 Oeste 30 Noroeste 0 -- -- 51
2018-05-07 19:00:00 28.1 10 Oeste 19 Oeste 0 -- -- 33
2018-05-07 18:00:00 28.1 5 Oeste 15 Noroeste 0 -- -- 34
2018-05-07 17:00:00 28 8 Norte 16 Noroeste 0 -- -- 37
2018-05-07 16:00:00 27.2 4 Norte 11 Este 0 -- -- 40
2018-05-07 15:00:00 26.2 8 Norte 15 Este 0 -- -- 43
2018-05-07 14:00:00 25 8 Norte 14 Este 0 -- -- 50
2018-05-07 13:00:00 23.9 5 Este 18 Este 0 -- -- 53
2018-05-07 12:00:00 22.3 13 Este 19 Este 0 -- -- 62
2018-05-07 11:00:00 20 9 Este 19 Este 0 -- -- 72
2018-05-07 10:00:00 17.6 9 Este 19 Este 0 -- -- 77
2018-05-07 09:00:00 15.8 8 Nordeste 13 Este 0 -- -- 88
2018-05-07 08:00:00 13.5 4 Nordeste 10 Este 0 -- -- 90
2018-05-07 07:00:00 13.5 8 Este 16 Este 0 -- -- 89
2018-05-07 06:00:00 13.8 6 Nordeste 13 Este 0 -- -- 87
2018-05-07 05:00:00 14.1 6 Nordeste 14 Este 0 -- -- 87
2018-05-07 04:00:00 14.8 8 Nordeste 14 Nordeste 0 -- -- 86
2018-05-07 03:00:00 15.2 8 Este 13 Nordeste 0 -- -- 87
2018-05-07 02:00:00 15.7 8 Nordeste 12 Este 0 -- -- 85
2018-05-07 01:00:00 16.3 9 Este 13 Nordeste 0 -- -- 84
2018-05-07 00:00:00 17.2 5 Este 15 Sudeste 0 -- -- 80
2018-05-06 23:00:00 18.2 12 Sudeste 16 Sudeste 0 -- -- 77
2018-05-06 22:00:00 19.1 8 Este 13 Nordeste 0 -- -- 79
2018-05-06 21:00:00 19.5 8 Nordeste 14 Nordeste 0 -- -- 79
2018-05-06 20:00:00 19 11 Este 44 Este 4.4 -- -- 76
2018-05-06 19:00:00 26.7 8 Sudeste 17 Nordeste 0 -- -- 36
2018-05-06 18:00:00 27.4 9 Este 20 Este 0 -- -- 41
2018-05-06 17:00:00 26.8 9 Este 22 Este 0 -- -- 41
2018-05-06 16:00:00 25 10 Nordeste 19 Nordeste 0 -- -- 46
2018-05-06 15:00:00 23.7 12 Nordeste 22 Nordeste 0 -- -- 48
2018-05-06 14:00:00 24.4 14 Este 26 Nordeste 0 -- -- 46
2018-05-06 13:00:00 24.6 15 Este 28 Este 0 -- -- 45
2018-05-06 12:00:00 23.1 14 Este 27 Este 0 -- -- 47
2018-05-06 11:00:00 21.5 15 Este 26 Este 0 -- -- 49
2018-05-06 10:00:00 18.9 13 Este 31 Este 0 -- -- 60
2018-05-06 09:00:00 16.5 17 Este 26 Este 0 -- -- 67
2018-05-06 08:00:00 13.5 10 Nordeste 16 Este 0 -- -- 81
2018-05-06 07:00:00 13.7 12 Este 17 Este 0 -- -- 80
2018-05-06 06:00:00 13.9 8 Este 12 Este 0 -- -- 84
2018-05-06 05:00:00 14 6 Nordeste 10 Sudeste 0 -- -- 83
2018-05-06 04:00:00 14.7 7 Sudeste 9 Este 0 -- -- 82
2018-05-06 03:00:00 15.3 6 Sudeste 14 Nordeste 0 -- -- 79
2018-05-06 02:00:00 16.2 0 Calma 12 Este 0 -- -- 76
2018-05-06 01:00:00 17.5 4 Oeste 10 Sur 0 -- -- 71
2018-05-06 00:00:00 18.2 3 Sudeste 21 Sudeste 0 -- -- 66
2018-05-05 23:00:00 20.1 5 Nordeste 6 Nordeste 0 -- -- 54
2018-05-05 22:00:00 22.3 4 Noroeste 8 Norte 0 -- -- 48
2018-05-05 21:00:00 25.9 3 Nordeste 8 Nordeste 0 -- -- 35
2018-05-05 20:00:00 27.3 3 Sudeste 11 Nordeste 0 -- -- 30
2018-05-05 19:00:00 28.5 6 Nordeste 12 Nordeste 0 -- -- 29
2018-05-05 18:00:00 28.2 4 Norte 12 Nordeste 0 -- -- 31
2018-05-05 17:00:00 26 6 Nordeste 15 Nordeste 0 -- -- 35
2018-05-05 16:00:00 26.6 3 Oeste 16 Este 0 -- -- 34
2018-05-05 15:00:00 25.5 5 Nordeste 16 Nordeste 0 -- -- 38
2018-05-05 14:00:00 24.3 3 Nordeste 12 Sudeste 0 -- -- 42
2018-05-05 13:00:00 22.9 3 Este 15 Este 0 -- -- 52
2018-05-05 12:00:00 21.2 8 Este 20 Este 0 -- -- 60
2018-05-05 11:00:00 18.8 8 Este 15 Nordeste 0 -- -- 68
2018-05-05 10:00:00 16 11 Este 15 Este 0 -- -- 77
2018-05-05 09:00:00 13.6 7 Este 11 Este 0 -- -- 88
2018-05-05 08:00:00 11.2 4 Nordeste 10 Este 0 -- -- 90
2018-05-05 07:00:00 11.3 4 Este 10 Este 0 -- -- 89
2018-05-05 06:00:00 11.6 6 Este 9 Nordeste 0 -- -- 89
2018-05-05 05:00:00 12 6 Nordeste 9 Nordeste 0 -- -- 87
2018-05-05 04:00:00 12.6 4 Este 6 Este 0 -- -- 86
2018-05-05 03:00:00 13.2 4 Norte 9 Sur 0 -- -- 85
2018-05-05 02:00:00 14.5 5 Sur 10 Sur 0 -- -- 82
2018-05-05 01:00:00 15.1 4 Sudoeste 7 Sudoeste 0 -- -- 79
2018-05-05 00:00:00 15.6 0 Calma 5 Noroeste 0 -- -- 77
2018-05-04 23:00:00 16 4 Noroeste 7 Noroeste 0 -- -- 76
2018-05-04 22:00:00 17 6 Oeste 20 Sudoeste 0 -- -- 70
2018-05-04 21:00:00 18 17 Sudoeste 33 Sudoeste 0 -- -- 60
2018-05-04 20:00:00 19.5 26 Sudoeste 48 Sur 0 -- -- 57
2018-05-04 19:00:00 22.3 33 Sur 51 Sur 0 -- -- 51
2018-05-04 18:00:00 26.3 4 Nordeste 17 Norte 0 -- -- 32
2018-05-04 17:00:00 26.2 6 Norte 15 Oeste 0 -- -- 32
2018-05-04 16:00:00 25.5 4 Norte 13 Este 0 -- -- 35
2018-05-04 15:00:00 24 5 Sur 16 Este 0 -- -- 39
2018-05-04 14:00:00 22.9 6 Sudeste 23 Este 0 -- -- 40
2018-05-04 13:00:00 21.9 10 Este 24 Este 0 -- -- 48
2018-05-04 12:00:00 20.4 10 Este 23 Este 0 -- -- 53
2018-05-04 11:00:00 18.9 11 Este 19 Este 0 -- -- 61
2018-05-04 10:00:00 16 11 Este 16 Este 0 -- -- 71
2018-05-04 09:00:00 14.3 9 Nordeste 14 Nordeste 0 -- -- 82
2018-05-04 08:00:00 11.5 6 Este 10 Este 0 -- -- 90
2018-05-04 07:00:00 11.3 6 Este 8 Nordeste 0 -- -- 88
2018-05-04 06:00:00 11.7 4 Este 8 Nordeste 0 -- -- 87
2018-05-04 05:00:00 12.8 0 Calma 4 Norte 0 -- -- 84
2018-05-04 04:00:00 13.7 3 Sudoeste 7 Sudeste 0 -- -- 84
2018-05-04 03:00:00 14.1 0 Calma 8 Oeste 0 -- -- 80
2018-05-04 02:00:00 15.7 6 Sudoeste 16 Sudoeste 0 -- -- 75
2018-05-04 01:00:00 17.2 7 Sudoeste 17 Sudoeste 0 -- -- 65
2018-05-04 00:00:00 18.3 4 Sudoeste 17 Sudoeste 0 -- -- 63
2018-05-03 23:00:00 18.9 12 Sudoeste 24 Sudoeste 0 -- -- 58
2018-05-03 22:00:00 20.6 13 Sudoeste 23 Oeste 0 -- -- 57
2018-05-03 21:00:00 21.9 10 Oeste 19 Oeste 0 -- -- 49
2018-05-03 20:00:00 23.5 13 Oeste 26 Sudoeste 0 -- -- 40
2018-05-03 19:00:00 23.8 17 Oeste 26 Oeste 0 -- -- 38
2018-05-03 18:00:00 24.6 13 Oeste 24 Oeste 0 -- -- 37
2018-05-03 17:00:00 25.4 6 Noroeste 18 Noroeste 0 -- -- 33
2018-05-03 16:00:00 24.2 5 Nordeste 19 Noroeste 0 -- -- 34
2018-05-03 15:00:00 23.8 6 Nordeste 15 Sudoeste 0 -- -- 36
2018-05-03 14:00:00 22.1 7 Sudoeste 13 Sudoeste 0 -- -- 36
2018-05-03 13:00:00 20.9 4 Sudeste 12 Nordeste 0 -- -- 43
2018-05-03 12:00:00 19.3 4 Este 12 Este 0 -- -- 50
2018-05-03 11:00:00 17.1 4 Sudeste 11 Sudeste 0 -- -- 56
2018-05-03 10:00:00 14.5 5 Este 10 Este 0 -- -- 69
2018-05-03 09:00:00 11.7 6 Este 10 Este 0 -- -- 81
2018-05-03 08:00:00 8.9 6 Este 8 Este 0 -- -- 88
2018-05-03 07:00:00 9 5 Este 8 Este 0 -- -- 86
2018-05-03 06:00:00 9.1 5 Este 8 Este 0 -- -- 85
2018-05-03 05:00:00 9.6 4 Este 6 Nordeste 0 -- -- 85
2018-05-03 04:00:00 10.8 0 Calma 6 Sur 0 -- -- 80
2018-05-03 03:00:00 10.5 3 Sur 5 Sudoeste 0 -- -- 81
2018-05-03 02:00:00 11.6 0 Calma 6 Sur 0 -- -- 76
2018-05-03 01:00:00 12.7 5 Sudoeste 10 Sudoeste 0 -- -- 71
2018-05-03 00:00:00 13.5 9 Sudoeste 15 Sudoeste 0 -- -- 67
2018-05-02 23:00:00 14.5 8 Sudoeste 21 Sudoeste 0 -- -- 61
2018-05-02 22:00:00 16 15 Oeste 28 Oeste 0 -- -- 51
2018-05-02 21:00:00 17.9 21 Oeste 32 Oeste 0 -- -- 37
2018-05-02 20:00:00 20 17 Sudoeste 29 Sudoeste 0 -- -- 34
2018-05-02 19:00:00 21.3 10 Oeste 23 Oeste 0 -- -- 31
2018-05-02 18:00:00 21.3 12 Sudoeste 24 Oeste 0 -- -- 32
2018-05-02 17:00:00 21.1 12 Oeste 31 Sudoeste 0 -- -- 33
2018-05-02 16:00:00 20.1 11 Oeste 26 Oeste 0 -- -- 36
2018-05-02 15:00:00 19.9 14 Oeste 24 Oeste 0 -- -- 41
2018-05-02 14:00:00 18.7 4 Sudoeste 19 Sudoeste 0 -- -- 41
2018-05-02 13:00:00 17.6 2 Norte 11 Sur 0 -- -- 45
2018-05-02 12:00:00 16.1 4 Este 13 Este 0 -- -- 54
2018-05-02 11:00:00 13.7 6 Sudeste 14 Sudeste 0 -- -- 70
2018-05-02 10:00:00 11 9 Este 14 Este 0 -- -- 83
2018-05-02 09:00:00 9.6 7 Este 17 Este 0 -- -- 91
2018-05-02 08:00:00 7.5 5 Este 17 Este 0 -- -- 92
2018-05-02 07:00:00 6.8 8 Este 11 Este 0 -- -- 91
2018-05-02 06:00:00 7 5 Nordeste 7 Nordeste 0 -- -- 90
2018-05-02 05:00:00 7.4 3 Este 6 Nordeste 0 -- -- 89
2018-05-02 04:00:00 7.8 5 Norte 6 Norte 0 -- -- 88
2018-05-02 03:00:00 8.8 0 Calma 6 Noroeste 0 -- -- 86
2018-05-02 02:00:00 9.7 0 Calma 9 Sudoeste 0 -- -- 84
2018-05-02 01:00:00 10.4 3 Noroeste 10 Oeste 0 -- -- 82
2018-05-02 00:00:00 10.5 7 Oeste 11 Sudoeste 0 -- -- 81
2018-05-01 23:00:00 12 10 Oeste 14 Sudoeste 0 -- -- 71
2018-05-01 22:00:00 12.7 6 Sudoeste 15 Oeste 0 -- -- 68
2018-05-01 21:00:00 14.5 12 Oeste 18 Oeste 0 -- -- 60
2018-05-01 20:00:00 16.7 9 Noroeste 17 Oeste 0 -- -- 49
2018-05-01 19:00:00 16.8 9 Noroeste 18 Oeste 0.2 -- -- 50
2018-05-01 18:00:00 16.1 5 Oeste 32 Norte 0 -- -- 50
2018-05-01 17:00:00 15 11 Nordeste 35 Norte 0 -- -- 57
2018-05-01 16:00:00 13.2 8 Sudeste 32 Nordeste 0.4 -- -- 70
2018-05-01 15:00:00 14.1 3 Nordeste 22 Norte 0.4 -- -- 70
2018-05-01 14:00:00 17 10 Oeste 28 Sudoeste 0 -- -- 46
2018-05-01 13:00:00 16.2 14 Sudoeste 24 Sudoeste 0 -- -- 55
2018-05-01 12:00:00 14.1 8 Oeste 15 Oeste 0 -- -- 64
2018-05-01 11:00:00 12.3 4 Norte 9 Norte 0 -- -- 80
2018-05-01 10:00:00 10.2 0 Calma 6 Nordeste 0 -- -- 88
2018-05-01 09:00:00 8.9 3 Norte 6 Noroeste 0 -- -- 90
2018-05-01 08:00:00 7.7 0 Calma 4 Nordeste 0 -- -- 88
2018-05-01 07:00:00 7.9 4 Nordeste 9 Norte 0 -- -- 87
2018-05-01 06:00:00 8.3 0 Calma 6 Nordeste 0 -- -- 87
2018-05-01 05:00:00 8.7 4 Noroeste 9 Noroeste 0 -- -- 88
2018-05-01 04:00:00 9.1 4 Noroeste 6 Noroeste 0 -- -- 87
2018-05-01 03:00:00 9.4 3 Noroeste 8 Norte 0 -- -- 88
2018-05-01 02:00:00 10.1 4 Noroeste 11 Sudoeste 0 -- -- 85
2018-05-01 01:00:00 11.5 6 Sudoeste 16 Sudoeste 0 -- -- 81
2018-05-01 00:00:00 11.8 9 Sudoeste 15 Oeste 0 -- -- 80
2018-04-30 23:00:00 12.7 8 Sudoeste 20 Sudoeste 0 -- -- 75
2018-04-30 22:00:00 13.9 9 Sudoeste 17 Sudoeste 0 -- -- 63
2018-04-30 21:00:00 15.5 7 Sudoeste 20 Sudoeste 0 -- -- 58
2018-04-30 20:00:00 17.3 11 Sudoeste 19 Oeste 0 -- -- 51
2018-04-30 19:00:00 17.7 6 Noroeste 13 Oeste 0.2 -- -- 47
2018-04-30 18:00:00 16.2 6 Sudoeste 40 Noroeste 0.2 -- -- 55
2018-04-30 17:00:00 16 16 Norte 36 Noroeste 0 -- -- 60
2018-04-30 16:00:00 16.6 11 Oeste 21 Oeste 0 -- -- 48
2018-04-30 15:00:00 14.7 10 Noroeste 17 Oeste 0 -- -- 60
2018-04-30 14:00:00 12.2 12 Noroeste 33 Noroeste 0.6 -- -- 81
2018-04-30 13:00:00 15.9 6 Noroeste 15 Oeste 0 -- -- 45
2018-04-30 12:00:00 15.6 4 Noroeste 13 Sudoeste 0 -- -- 45
2018-04-30 11:00:00 13.9 4 Noroeste 8 Este 0 -- -- 56
2018-04-30 10:00:00 11.7 2 Norte 8 Norte 0 -- -- 69
2018-04-30 09:00:00 9.7 3 Norte 5 Norte 0 -- -- 79
2018-04-30 08:00:00 6.9 3 Sudoeste 6 Sudeste 0 -- -- 88
2018-04-30 07:00:00 6.6 0 Calma 6 Norte 0 -- -- 85
2018-04-30 06:00:00 7.8 4 Oeste 6 Oeste 0 -- -- 82
2018-04-30 05:00:00 7.7 4 Norte 12 Oeste 0 -- -- 82
2018-04-30 04:00:00 9.4 9 Sudoeste 12 Sudoeste 0 -- -- 73
2018-04-30 03:00:00 9.3 7 Oeste 12 Sudoeste 0 -- -- 76
2018-04-30 02:00:00 10.3 6 Sudoeste 9 Sudoeste 0 -- -- 69
2018-04-30 01:00:00 10.3 0 Calma 9 Oeste 0 -- -- 74
2018-04-30 00:00:00 11.3 7 Oeste 13 Oeste 0 -- -- 67
2018-04-29 23:00:00 12.6 10 Oeste 15 Oeste 0 -- -- 60
2018-04-29 22:00:00 14.5 11 Oeste 22 Oeste 0 -- -- 56
2018-04-29 21:00:00 15.8 13 Oeste 34 Oeste 0 -- -- 56
2018-04-29 20:00:00 17.1 28 Oeste 43 Sudoeste 0 -- -- 52
2018-04-29 19:00:00 18.2 21 Oeste 36 Oeste 0 -- -- 49
2018-04-29 18:00:00 17.1 28 Oeste 51 Oeste 0 -- -- 48
2018-04-29 17:00:00 18.5 26 Oeste 46 Oeste 0 -- -- 41
2018-04-29 16:00:00 18.5 32 Oeste 45 Oeste 0 -- -- 39
2018-04-29 15:00:00 18.5 24 Oeste 43 Oeste 0 -- -- 39
2018-04-29 14:00:00 18.2 23 Oeste 42 Sudoeste 0 -- -- 41
2018-04-29 13:00:00 16.3 25 Oeste 36 Oeste 0 -- -- 47
2018-04-29 12:00:00 14.8 21 Oeste 34 Oeste 0 -- -- 59
2018-04-29 11:00:00 12.9 21 Oeste 31 Oeste 0 -- -- 66
2018-04-29 10:00:00 11.7 20 Oeste 29 Sudoeste 0 -- -- 72
2018-04-29 09:00:00 10 21 Sudoeste 28 Sudoeste 0 -- -- 80
2018-04-29 08:00:00 8.7 13 Sudoeste 23 Sudoeste 0 -- -- 85
2018-04-29 07:00:00 8.6 14 Sudoeste 23 Sudoeste 0 -- -- 85
2018-04-29 06:00:00 9.2 14 Oeste 26 Oeste 0 -- -- 82
2018-04-29 05:00:00 9.4 18 Oeste 27 Sudoeste 0 -- -- 82
2018-04-29 04:00:00 10.1 16 Oeste 24 Sudoeste 0 -- -- 79
2018-04-29 03:00:00 10.3 13 Oeste 24 Oeste 0 -- -- 80
2018-04-29 02:00:00 10.8 17 Oeste 32 Oeste 0 -- -- 76
2018-04-29 01:00:00 11.7 22 Oeste 34 Oeste 0 -- -- 73
2018-04-29 00:00:00 12.8 21 Oeste 45 Sudoeste 0 -- -- 71
2018-04-28 23:00:00 13.8 19 Sudoeste 42 Sudoeste 0 -- -- 66
2018-04-28 22:00:00 14.7 27 Sudoeste 39 Sudoeste 0 -- -- 61
2018-04-28 21:00:00 15.5 23 Oeste 45 Oeste 0 -- -- 56
2018-04-28 20:00:00 17 28 Oeste 41 Oeste 0 -- -- 48
2018-04-28 19:00:00 18.1 26 Oeste 38 Oeste 0 -- -- 45
2018-04-28 18:00:00 19.5 22 Oeste 40 Sudoeste 0 -- -- 36
2018-04-28 17:00:00 19.6 24 Oeste 43 Sudoeste 0 -- -- 34
2018-04-28 16:00:00 19.2 24 Sudoeste 45 Oeste 0 -- -- 39
2018-04-28 15:00:00 19.2 24 Oeste 39 Oeste 0 -- -- 37
2018-04-28 14:00:00 18.4 15 Sudoeste 36 Oeste 0 -- -- 37
2018-04-28 13:00:00 18.3 22 Oeste 32 Oeste 0 -- -- 35
2018-04-28 12:00:00 17.1 12 Oeste 24 Sudoeste 0 -- -- 44
2018-04-28 11:00:00 16.2 7 Noroeste 23 Noroeste 0 -- -- 48
2018-04-28 10:00:00 14.6 12 Norte 23 Norte 0 -- -- 54
2018-04-28 09:00:00 13.2 7 Noroeste 12 Noroeste 0 -- -- 85
2018-04-28 08:00:00 12.4 5 Sudoeste 8 Sudoeste 0 -- -- 89
2018-04-28 07:00:00 12.8 5 Sudoeste 10 Oeste 0 -- -- 88
2018-04-28 06:00:00 13.3 7 Oeste 11 Oeste 0 -- -- 87
2018-04-28 05:00:00 13.5 4 Noroeste 9 Sudoeste 0 -- -- 85
2018-04-28 04:00:00 14.7 8 Sudoeste 12 Sudoeste 0 -- -- 81
2018-04-28 03:00:00 15.1 7 Sudoeste 12 Sudoeste 0 -- -- 78
2018-04-28 02:00:00 16 8 Sudoeste 13 Sudoeste 0 -- -- 73
2018-04-28 01:00:00 16.4 8 Oeste 17 Sudoeste 0 -- -- 71
2018-04-28 00:00:00 17.4 12 Sudoeste 17 Sudoeste 0 -- -- 64